Time;durP1;ratioP1;P1;durP2;ratioP2;P2;SDS_P1;SDS_P2;PMS_P1;PMS_P2;Temp;Humidity;BMP_temperature;BMP_pressure;BME280_temperature;BME280_humidity;BME280_pressure;Samples;Min_cycle;Max_cycle;Signal;HPM_P1;HPM_P2
2023/11/19 00:00:16;;;;;;;4.97;2.22;;;;;;;6.19;100.00;97409.66;5011163;28;20037;-76
2023/11/19 00:02:43;;;;;;;3.08;2.03;;;;;;;6.12;100.00;97418.88;5010773;28;20038;-75
2023/11/19 00:05:11;;;;;;;3.53;2.03;;;;;;;6.19;100.00;97420.28;4994604;28;20033;-74
2023/11/19 00:07:37;;;;;;;2.53;1.80;;;;;;;6.15;100.00;97424.03;5010549;28;20034;-76
2023/11/19 00:10:06;;;;;;;3.65;2.30;;;;;;;6.04;100.00;97418.34;5010843;28;20401;-75
2023/11/19 00:12:32;;;;;;;3.15;2.00;;;;;;;6.09;100.00;97424.31;4994996;28;20045;-75
2023/11/19 00:14:58;;;;;;;2.30;1.60;;;;;;;5.95;100.00;97416.97;5010504;28;20025;-76
2023/11/19 00:17:23;;;;;;;3.47;1.80;;;;;;;5.87;100.00;97406.72;4994589;28;20034;-76
2023/11/19 00:19:51;;;;;;;5.55;2.15;;;;;;;5.93;100.00;97414.41;4994032;28;20030;-77
2023/11/19 00:22:17;;;;;;;4.40;2.10;;;;;;;6.05;100.00;97428.03;5011977;28;20124;-77
2023/11/19 00:24:42;;;;;;;3.83;2.15;;;;;;;5.99;100.00;97427.41;5010526;28;20041;-77
2023/11/19 00:27:08;;;;;;;3.53;2.08;;;;;;;6.06;100.00;97421.81;5011831;28;20038;-77
2023/11/19 00:29:33;;;;;;;5.10;2.08;;;;;;;6.06;100.00;97424.47;4994266;28;20068;-76
2023/11/19 00:31:59;;;;;;;4.07;2.45;;;;;;;6.15;100.00;97418.72;4993663;28;20033;-76
2023/11/19 00:34:25;;;;;;;3.35;2.30;;;;;;;6.22;100.00;97422.81;5011589;28;20109;-76
2023/11/19 00:36:52;;;;;;;2.55;1.85;;;;;;;6.18;100.00;97426.56;4977902;28;20025;-75
2023/11/19 00:39:17;;;;;;;3.03;1.92;;;;;;;6.15;100.00;97424.91;4977786;28;20052;-76
2023/11/19 00:41:43;;;;;;;2.22;1.77;;;;;;;6.25;100.00;97420.00;4993814;28;20022;-76
2023/11/19 00:44:09;;;;;;;3.22;1.48;;;;;;;6.19;100.00;97404.34;4994054;28;20017;-76
2023/11/19 00:46:34;;;;;;;4.72;1.73;;;;;;;6.23;100.00;97395.31;5011544;28;20493;-76
2023/11/19 00:49:01;;;;;;;2.83;1.70;;;;;;;6.18;100.00;97397.34;5005743;28;20021;-76
2023/11/19 00:51:26;;;;;;;2.58;1.80;;;;;;;6.24;100.00;97394.41;4994052;28;20026;-76
2023/11/19 00:53:55;;;;;;;3.17;1.80;;;;;;;6.26;100.00;97401.34;5011236;28;20026;-76
2023/11/19 00:56:20;;;;;;;3.30;1.80;;;;;;;6.21;100.00;97399.84;4994180;28;20037;-76
2023/11/19 00:58:46;;;;;;;2.25;1.73;;;;;;;6.17;100.00;97407.09;4993456;28;20125;-77
2023/11/19 01:01:12;;;;;;;3.13;2.00;;;;;;;6.24;100.00;97413.00;5011278;28;20025;-76
2023/11/19 01:03:37;;;;;;;3.40;2.00;;;;;;;6.26;100.00;97409.31;5011530;28;20030;-77
2023/11/19 01:06:03;;;;;;;3.45;1.77;;;;;;;6.27;100.00;97399.56;4993547;28;20121;-77
2023/11/19 01:08:29;;;;;;;2.53;1.70;;;;;;;6.22;100.00;97399.78;4993569;28;20038;-76
2023/11/19 01:10:55;;;;;;;3.38;1.85;;;;;;;6.31;100.00;97404.66;5010879;28;20030;-77
2023/11/19 01:13:20;;;;;;;4.28;2.00;;;;;;;6.30;100.00;97404.72;5011164;28;20029;-77
2023/11/19 01:15:47;;;;;;;2.25;1.73;;;;;;;6.26;100.00;97396.03;4993328;28;20068;-76
2023/11/19 01:18:13;;;;;;;2.03;1.63;;;;;;;6.25;100.00;97399.63;4977406;28;20029;-76
2023/11/19 01:20:39;;;;;;;2.70;1.60;;;;;;;6.30;100.00;97396.75;5010962;28;20029;-76
2023/11/19 01:23:04;;;;;;;1.88;1.27;;;;;;;6.27;100.00;97391.59;4977309;28;20033;-76
2023/11/19 01:25:30;;;;;;;2.38;1.60;;;;;;;6.23;100.00;97388.22;4993889;28;20025;-76
2023/11/19 01:27:58;;;;;;;2.63;1.60;;;;;;;6.22;100.00;97391.81;4993629;28;20026;-76
2023/11/19 01:30:24;;;;;;;3.58;1.73;;;;;;;6.28;100.00;97394.16;4977841;28;20029;-76
2023/11/19 01:32:50;;;;;;;4.07;1.67;;;;;;;6.28;100.00;97385.34;4993673;28;20045;-75
2023/11/19 01:35:15;;;;;;;3.72;1.92;;;;;;;6.30;100.00;97396.75;4987958;28;20026;-76
2023/11/19 01:37:41;;;;;;;2.65;1.80;;;;;;;6.31;100.00;97398.47;4977417;28;20033;-77
2023/11/19 01:40:08;;;;;;;3.17;1.70;;;;;;;6.33;100.00;97396.63;4977206;28;20056;-76
2023/11/19 01:42:38;;;;;;;2.72;1.90;;;;;;;6.33;100.00;97396.63;4977677;28;20034;-76
2023/11/19 01:45:06;;;;;;;3.05;1.80;;;;;;;6.33;100.00;97391.31;4996599;28;20073;-76
2023/11/19 01:47:32;;;;;;;2.67;1.85;;;;;;;6.32;100.00;97395.75;4981463;28;20030;-76
2023/11/19 01:49:58;;;;;;;3.50;2.20;;;;;;;6.35;100.00;97395.59;4981036;28;20029;-77
2023/11/19 01:52:25;;;;;;;3.75;2.40;;;;;;;6.35;100.00;97400.06;4997375;28;20040;-76
2023/11/19 01:54:52;;;;;;;3.55;2.20;;;;;;;6.36;100.00;97407.97;4980532;28;20034;-76
2023/11/19 01:57:18;;;;;;;5.10;2.50;;;;;;;6.40;100.00;97393.56;4996943;28;20018;-76
2023/11/19 01:59:44;;;;;;;5.85;3.00;;;;;;;6.38;100.00;97411.41;4996921;28;20374;-76
2023/11/19 02:02:10;;;;;;;5.78;3.42;;;;;;;6.42;100.00;97410.31;5014432;28;20022;-76
2023/11/19 02:04:35;;;;;;;4.85;2.78;;;;;;;6.42;100.00;97399.69;4997057;28;20017;-76
2023/11/19 02:07:01;;;;;;;6.75;3.53;;;;;;;6.42;100.00;97396.19;5014302;28;20396;-76
2023/11/19 02:09:27;;;;;;;4.70;2.80;;;;;;;6.43;100.00;97397.88;4980532;28;20029;-75
2023/11/19 02:11:53;;;;;;;4.13;2.38;;;;;;;6.35;100.00;97405.38;4997196;28;20033;-76
2023/11/19 02:14:22;;;;;;;4.15;2.38;;;;;;;6.29;100.00;97384.41;4997045;28;20068;-76
2023/11/19 02:16:49;;;;;;;7.82;2.40;;;;;;;6.27;100.00;97400.44;4980470;28;20409;-75
2023/11/19 02:19:14;;;;;;;4.30;2.33;;;;;;;6.25;100.00;97381.03;4996621;28;20121;-74
2023/11/19 02:21:41;;;;;;;3.05;2.00;;;;;;;6.25;100.00;97388.13;4980130;28;20116;-76
2023/11/19 02:24:08;;;;;;;4.78;2.42;;;;;;;6.19;100.00;97377.81;4996503;28;20026;-76
2023/11/19 02:26:45;;;;;;;2.97;1.55;;;;;;;6.16;100.00;97388.56;4987593;28;20128;-77
2023/11/19 02:29:11;;;;;;;2.75;1.77;;;;;;;6.08;100.00;97390.72;4996792;28;20040;-76
2023/11/19 02:31:37;;;;;;;3.13;1.60;;;;;;;6.09;100.00;97397.78;5012821;28;20064;-74
2023/11/19 02:34:02;;;;;;;2.65;1.80;;;;;;;6.07;100.00;97396.97;5013906;28;20081;-75
2023/11/19 02:36:28;;;;;;;3.58;2.20;;;;;;;6.02;100.00;97396.31;5012222;28;20125;-75
2023/11/19 02:38:54;;;;;;;6.55;2.90;;;;;;;6.02;100.00;97397.19;5012444;28;20408;-74
2023/11/19 02:41:20;;;;;;;4.28;1.95;;;;;;;6.06;100.00;97397.91;4995997;28;20136;-76
2023/11/19 02:43:48;;;;;;;5.03;2.22;;;;;;;6.10;100.00;97400.34;4995851;28;20164;-76
2023/11/19 02:46:14;;;;;;;3.05;1.95;;;;;;;6.07;100.00;97394.31;5012339;28;20481;-76
2023/11/19 02:48:40;;;;;;;3.22;2.00;;;;;;;6.08;100.00;97396.03;4996020;28;20030;-76
2023/11/19 02:51:09;;;;;;;7.00;1.90;;;;;;;6.04;100.00;97389.16;5012595;28;20048;-75
2023/11/19 02:53:35;;;;;;;2.75;1.75;;;;;;;6.09;100.00;97390.66;4996268;28;20478;-76
2023/11/19 02:56:06;;;;;;;2.10;1.70;;;;;;;6.10;100.00;97389.72;5013236;28;20474;-75
2023/11/19 02:58:32;;;;;;;2.67;1.92;;;;;;;6.14;100.00;97398.41;4996231;28;20398;-76
2023/11/19 03:00:59;;;;;;;6.35;1.80;;;;;;;6.08;100.00;97388.09;5012240;28;20032;-76
2023/11/19 03:03:30;;;;;;;3.38;1.63;;;;;;;6.10;100.00;97383.56;5012088;28;20493;-76
2023/11/19 03:05:56;;;;;;;3.47;2.03;;;;;;;6.03;100.00;97382.13;4996381;28;20533;-75
2023/11/19 03:08:22;;;;;;;4.47;1.90;;;;;;;6.03;100.00;97377.66;5011801;28;20168;-76
2023/11/19 03:10:48;;;;;;;3.40;2.03;;;;;;;6.04;100.00;97383.84;5012017;28;20105;-76
2023/11/19 03:13:14;;;;;;;3.65;1.85;;;;;;;6.07;100.00;97387.22;5012028;28;20029;-75
2023/11/19 03:15:40;;;;;;;2.13;1.58;;;;;;;6.02;100.00;97391.88;5013293;28;20026;-76
2023/11/19 03:18:06;;;;;;;1.88;1.58;;;;;;;5.91;100.00;97389.72;4996001;28;20474;-76
2023/11/19 03:20:32;;;;;;;2.50;1.30;;;;;;;5.86;100.00;97399.69;5012361;28;20033;-75
2023/11/19 03:22:57;;;;;;;1.92;1.52;;;;;;;5.85;100.00;97395.31;4995590;28;20025;-75
2023/11/19 03:25:36;;;;;;;2.00;1.45;;;;;;;5.80;100.00;97397.28;5012317;28;20033;-76
2023/11/19 03:28:03;;;;;;;3.65;2.45;;;;;;;5.72;100.00;97407.38;4995708;28;20127;-76
2023/11/19 03:30:29;;;;;;;3.08;2.15;;;;;;;5.67;100.00;97412.03;5012489;28;20125;-77
2023/11/19 03:32:58;;;;;;;3.50;2.20;;;;;;;5.73;100.00;97418.84;4996130;28;20168;-76
2023/11/19 03:35:24;;;;;;;4.65;2.50;;;;;;;5.67;100.00;97417.34;4995901;28;20030;-76
2023/11/19 03:37:51;;;;;;;2.40;1.58;;;;;;;5.73;100.00;97425.03;4995067;28;20032;-76
2023/11/19 03:40:17;;;;;;;3.03;2.05;;;;;;;5.75;100.00;97419.66;4994883;28;20092;-76
2023/11/19 03:42:42;;;;;;;2.53;1.80;;;;;;;5.62;100.00;97405.22;4994873;28;20564;-75
2023/11/19 03:45:09;;;;;;;3.45;1.80;;;;;;;5.63;100.00;97421.03;5012666;28;20544;-76
2023/11/19 03:47:35;;;;;;;2.25;1.40;;;;;;;5.68;100.00;97429.69;4979112;28;20022;-76
2023/11/19 03:50:01;;;;;;;2.47;1.40;;;;;;;5.82;100.00;97437.00;4978660;28;20026;-75
2023/11/19 03:52:29;;;;;;;2.40;1.50;;;;;;;5.81;100.00;97443.28;4978522;28;20036;-77
2023/11/19 03:54:56;;;;;;;1.85;1.40;;;;;;;5.84;100.00;97459.06;5012072;28;20038;-76
2023/11/19 03:57:22;;;;;;;2.67;1.67;;;;;;;5.85;100.00;97445.72;4995222;28;20034;-76
2023/11/19 03:59:47;;;;;;;1.77;1.35;;;;;;;5.91;100.00;97450.75;4975880;28;20493;-76
2023/11/19 04:02:13;;;;;;;2.65;1.63;;;;;;;5.96;100.00;97447.91;5012401;28;20115;-76
2023/11/19 04:04:39;;;;;;;2.20;1.75;;;;;;;6.01;100.00;97451.22;5012275;28;20029;-75
2023/11/19 04:07:05;;;;;;;3.35;2.35;;;;;;;5.96;100.00;97456.75;4994028;28;20032;-75
2023/11/19 04:09:32;;;;;;;4.38;2.33;;;;;;;6.05;100.00;97463.44;5012076;28;20056;-76
2023/11/19 04:11:59;;;;;;;4.00;2.70;;;;;;;6.06;100.00;97459.81;4994733;28;20032;-75
2023/11/19 04:14:25;;;;;;;3.33;2.33;;;;;;;6.05;100.00;97460.78;4978193;28;20025;-76
2023/11/19 04:16:51;;;;;;;6.53;2.10;;;;;;;6.02;100.00;97450.28;4994695;28;20026;-75
2023/11/19 04:19:17;;;;;;;4.80;2.30;;;;;;;5.99;100.00;97451.31;4994063;28;20129;-76
2023/11/19 04:21:43;;;;;;;3.58;2.20;;;;;;;6.00;100.00;97447.69;4994590;28;20485;-77
2023/11/19 04:24:13;;;;;;;2.72;1.60;;;;;;;6.01;100.00;97453.88;4978203;28;20022;-76
2023/11/19 04:26:46;;;;;;;2.75;2.28;;;;;;;5.94;100.00;97463.03;4986555;28;20038;-78
2023/11/19 04:29:12;;;;;;;4.25;2.42;;;;;;;5.96;100.00;97471.81;5010904;28;20168;-77
2023/11/19 04:31:39;;;;;;;4.90;3.03;;;;;;;5.94;100.00;97471.84;5010626;28;20029;-76
2023/11/19 04:34:06;;;;;;;10.25;3.78;;;;;;;5.91;100.00;97464.03;5010388;28;20021;-76
2023/11/19 04:36:32;;;;;;;8.15;3.90;;;;;;;5.93;100.00;97472.81;5010151;28;20423;-75
2023/11/19 04:38:59;;;;;;;8.02;4.43;;;;;;;5.81;100.00;97465.38;4994318;28;20018;-76
2023/11/19 04:41:27;;;;;;;8.23;4.85;;;;;;;5.84;100.00;97477.63;5011433;28;20417;-77
2023/11/19 04:43:53;;;;;;;14.13;6.60;;;;;;;5.80;100.00;97487.50;5010474;28;20049;-76
2023/11/19 04:46:19;;;;;;;13.75;6.28;;;;;;;5.71;100.00;97477.31;5010438;28;20068;-76
2023/11/19 04:48:44;;;;;;;12.65;6.32;;;;;;;5.63;100.00;97483.88;4994210;28;20034;-76
2023/11/19 04:51:10;;;;;;;14.57;7.03;;;;;;;5.52;100.00;97476.38;5010043;28;20116;-76
2023/11/19 04:53:36;;;;;;;13.93;6.22;;;;;;;5.48;100.00;97464.16;4993804;28;20033;-76
2023/11/19 04:56:07;;;;;;;14.20;6.07;;;;;;;5.50;100.00;97483.53;4993613;28;20034;-77
2023/11/19 04:58:33;;;;;;;15.93;6.68;;;;;;;5.41;100.00;97471.50;5011251;28;20108;-76
2023/11/19 05:00:59;;;;;;;13.43;6.35;;;;;;;5.42;100.00;97485.63;5010786;28;20022;-77
2023/11/19 05:03:24;;;;;;;15.93;6.65;;;;;;;5.25;100.00;97482.84;5011753;28;20371;-76
2023/11/19 05:05:50;;;;;;;15.00;6.22;;;;;;;5.24;100.00;97486.41;5010067;28;20540;-75
2023/11/19 05:08:16;;;;;;;17.30;7.53;;;;;;;5.05;100.00;97483.66;5011593;28;20022;-76
2023/11/19 05:10:41;;;;;;;16.10;7.90;;;;;;;4.96;100.00;97485.81;5011353;28;20136;-76
2023/11/19 05:13:07;;;;;;;20.55;8.02;;;;;;;4.90;100.00;97498.41;5010196;28;20108;-75
2023/11/19 05:15:33;;;;;;;19.10;7.10;;;;;;;4.98;100.00;97506.06;5009942;28;20120;-75
2023/11/19 05:17:58;;;;;;;14.80;7.00;;;;;;;4.95;100.00;97500.03;5010270;28;20516;-75
2023/11/19 05:20:24;;;;;;;13.27;6.43;;;;;;;4.98;100.00;97494.59;5014033;28;20069;-76
2023/11/19 05:22:51;;;;;;;13.30;6.30;;;;;;;5.07;100.00;97505.69;4997385;28;20056;-76
2023/11/19 05:25:16;;;;;;;13.18;6.10;;;;;;;5.06;100.00;97505.75;5014140;28;20022;-75
2023/11/19 05:27:42;;;;;;;12.07;6.10;;;;;;;5.07;100.00;97494.22;4980976;28;20033;-76
2023/11/19 05:30:08;;;;;;;20.48;8.27;;;;;;;5.06;100.00;97498.66;5015149;28;20113;-76
2023/11/19 05:32:34;;;;;;;21.25;10.73;;;;;;;5.03;100.00;97487.31;4997362;28;20116;-76
2023/11/19 05:34:59;;;;;;;38.33;12.27;;;;;;;5.03;100.00;97503.22;4996611;28;20601;-76
2023/11/19 05:37:25;;;;;;;25.75;11.35;;;;;;;5.01;100.00;97515.69;4980937;28;20489;-74
2023/11/19 05:39:50;;;;;;;25.42;11.57;;;;;;;4.94;100.00;97509.75;4996921;28;20386;-76
2023/11/19 05:42:17;;;;;;;24.00;11.70;;;;;;;4.98;100.00;97505.19;4997490;28;20041;-75
2023/11/19 05:44:42;;;;;;;29.70;13.48;;;;;;;5.03;100.00;97511.16;4981487;28;20034;-76
2023/11/19 05:47:08;;;;;;;28.80;13.50;;;;;;;5.13;100.00;97525.78;5014771;28;20032;-77
2023/11/19 05:49:33;;;;;;;35.22;13.77;;;;;;;5.10;100.00;97521.47;4997074;28;20026;-77
2023/11/19 05:51:59;;;;;;;25.95;12.05;;;;;;;5.23;100.00;97527.13;4980799;28;20026;-76
2023/11/19 05:54:26;;;;;;;28.38;13.48;;;;;;;5.21;100.00;97527.19;4997261;28;20072;-76
2023/11/19 05:56:53;;;;;;;54.33;24.92;;;;;;;5.25;100.00;97530.56;4996753;28;20034;-76
2023/11/19 05:59:19;;;;;;;36.88;13.90;;;;;;;5.37;100.00;97519.47;4997584;28;20099;-78
2023/11/19 06:01:45;;;;;;;41.30;17.00;;;;;;;5.46;100.00;97524.38;4996830;28;20041;-75
2023/11/19 06:04:11;;;;;;;35.15;15.10;;;;;;;5.55;100.00;97524.00;4996802;28;20026;-77
2023/11/19 06:06:36;;;;;;;26.70;13.18;;;;;;;5.56;100.00;97541.66;4996954;28;20030;-75
2023/11/19 06:09:03;;;;;;;23.17;12.25;;;;;;;5.64;100.00;97546.59;5014168;28;20477;-77
2023/11/19 06:11:29;;;;;;;27.48;12.65;;;;;;;5.56;100.00;97540.78;4980607;28;20413;-76
2023/11/19 06:13:54;;;;;;;24.88;12.10;;;;;;;5.61;100.00;97534.34;4996768;28;20036;-78
2023/11/19 06:16:20;;;;;;;28.45;12.80;;;;;;;5.57;100.00;97530.09;4980204;28;20033;-78
2023/11/19 06:18:46;;;;;;;31.38;14.43;;;;;;;5.67;100.00;97526.13;4979935;28;20509;-76
2023/11/19 06:21:12;;;;;;;151.20;61.13;;;;;;;5.80;100.00;97522.00;4980244;28;20034;-76
2023/11/19 06:23:39;;;;;;;82.30;37.92;;;;;;;5.92;100.00;97518.84;4996454;28;20034;-76
2023/11/19 06:26:05;;;;;;;66.75;31.33;;;;;;;6.03;100.00;97505.09;5013680;28;20555;-75
2023/11/19 06:28:31;;;;;;;115.82;52.30;;;;;;;6.12;100.00;97509.16;4996665;28;20030;-76
2023/11/19 06:30:57;;;;;;;107.78;50.28;;;;;;;6.21;100.00;97511.38;4995567;28;20536;-77
2023/11/19 06:33:24;;;;;;;37.00;18.13;;;;;;;6.23;100.00;97514.81;4996247;28;20378;-76
2023/11/19 06:35:49;;;;;;;24.40;12.93;;;;;;;6.29;100.00;97514.53;4979854;28;20038;-76
2023/11/19 06:38:15;;;;;;;87.00;47.35;;;;;;;6.32;100.00;97495.81;4996099;28;20037;-76
2023/11/19 06:40:41;;;;;;;37.58;19.65;;;;;;;6.40;100.00;97513.13;4985149;28;20030;-80
2023/11/19 06:43:08;;;;;;;150.32;75.28;;;;;;;6.61;100.00;97507.75;4995852;28;20037;-78
2023/11/19 06:45:34;;;;;;;106.05;57.50;;;;;;;6.88;100.00;97509.09;4996696;28;20033;-77
2023/11/19 06:48:03;;;;;;;29.13;17.25;;;;;;;7.16;100.00;97511.28;4996053;28;20041;-76
2023/11/19 06:50:29;;;;;;;25.83;12.27;;;;;;;7.42;100.00;97524.16;4996381;28;20056;-76
2023/11/19 06:52:55;;;;;;;24.15;13.13;;;;;;;7.59;100.00;97521.53;4996077;28;20069;-77
2023/11/19 06:55:20;;;;;;;27.15;13.90;;;;;;;7.81;100.00;97511.50;4996533;28;20037;-77
2023/11/19 06:57:46;;;;;;;48.75;19.80;;;;;;;7.95;100.00;97516.97;4995909;28;20541;-76
2023/11/19 07:00:12;;;;;;;44.65;18.35;;;;;;;7.96;100.00;97520.50;4995864;28;20025;-76
2023/11/19 07:02:37;;;;;;;25.13;11.18;;;;;;;7.95;100.00;97513.44;4996315;28;20037;-76
2023/11/19 07:05:08;;;;;;;29.00;13.30;;;;;;;8.05;100.00;97504.03;4995936;28;20029;-77
2023/11/19 07:07:33;;;;;;;23.40;10.75;;;;;;;8.13;100.00;97509.81;5013409;28;20041;-76
2023/11/19 07:09:59;;;;;;;22.15;12.43;;;;;;;8.28;100.00;97511.69;5012857;28;20029;-76
2023/11/19 07:12:27;;;;;;;23.38;12.38;;;;;;;8.47;100.00;97503.56;4995641;28;20030;-78
2023/11/19 07:14:54;;;;;;;15.02;7.45;;;;;;;8.58;97.89;97493.19;4995711;28;20511;-76
2023/11/19 07:17:20;;;;;;;39.35;19.27;;;;;;;8.85;96.36;97506.81;4995923;28;20501;-76
2023/11/19 07:19:46;;;;;;;13.15;5.82;;;;;;;8.92;94.71;97498.34;4979312;28;20025;-76
2023/11/19 07:22:12;;;;;;;15.63;8.38;;;;;;;8.93;94.25;97492.09;4995679;28;20312;-76
2023/11/19 07:24:41;;;;;;;10.63;5.95;;;;;;;9.10;92.69;97502.69;4979400;28;20033;-76
2023/11/19 07:27:08;;;;;;;8.50;3.95;;;;;;;9.09;94.74;97505.41;5006732;28;20084;-76
2023/11/19 07:29:34;;;;;;;8.25;4.75;;;;;;;9.04;93.84;97510.16;4995351;28;20022;-77
2023/11/19 07:32:01;;;;;;;11.80;4.93;;;;;;;9.07;86.96;97500.19;5012545;28;20107;-77
2023/11/19 07:34:29;;;;;;;14.23;5.78;;;;;;;8.82;85.86;97506.97;5011857;28;20482;-76
2023/11/19 07:36:57;;;;;;;15.18;8.38;;;;;;;8.90;87.19;97512.72;4995464;28;20141;-74
2023/11/19 07:39:23;;;;;;;23.85;13.10;;;;;;;9.04;85.78;97510.16;4995145;28;20068;-76
2023/11/19 07:41:49;;;;;;;15.15;8.50;;;;;;;9.12;86.00;97500.78;5010760;28;20030;-76
2023/11/19 07:44:14;;;;;;;12.30;7.20;;;;;;;9.15;86.49;97505.94;5011086;28;20534;-75
2023/11/19 07:46:42;;;;;;;13.50;6.43;;;;;;;9.29;84.11;97513.13;4994758;28;20037;-76
2023/11/19 07:49:07;;;;;;;6.53;3.83;;;;;;;9.22;83.12;97517.13;5011270;28;20101;-77
2023/11/19 07:51:33;;;;;;;8.68;3.53;;;;;;;9.20;87.49;97522.53;4994780;28;20557;-76
2023/11/19 07:53:58;;;;;;;8.00;4.60;;;;;;;9.32;84.23;97518.31;4994749;28;20026;-76
2023/11/19 07:56:24;;;;;;;16.58;7.68;;;;;;;9.47;86.78;97519.25;4994811;28;20044;-75
2023/11/19 07:58:50;;;;;;;27.67;13.65;;;;;;;9.47;92.78;97528.13;4995185;28;20029;-77
2023/11/19 08:01:16;;;;;;;11.45;5.38;;;;;;;9.48;79.75;97508.47;5011404;28;20022;-76
2023/11/19 08:03:41;;;;;;;217.68;96.00;;;;;;;9.27;82.09;97515.03;5011188;28;20029;-76
2023/11/19 08:06:07;;;;;;;27.55;11.95;;;;;;;9.25;85.06;97522.28;5010543;28;20101;-76
2023/11/19 08:08:34;;;;;;;4.80;3.35;;;;;;;9.40;81.26;97521.41;5010759;28;20476;-76
2023/11/19 08:11:00;;;;;;;7.72;4.15;;;;;;;9.49;81.24;97522.69;4994684;28;20117;-79
2023/11/19 08:13:26;;;;;;;5.70;3.47;;;;;;;9.46;78.91;97520.19;5011072;28;20113;-77
2023/11/19 08:15:52;;;;;;;8.68;4.75;;;;;;;9.00;82.62;97516.63;5012193;28;20458;-78
2023/11/19 08:18:18;;;;;;;21.02;11.95;;;;;;;8.93;83.63;97532.09;4993821;28;20038;-77
2023/11/19 08:20:44;;;;;;;6.07;3.72;;;;;;;8.97;83.26;97535.47;5011215;28;20025;-77
2023/11/19 08:23:10;;;;;;;6.97;3.80;;;;;;;8.94;82.62;97528.50;4994370;28;20050;-76
2023/11/19 08:25:36;;;;;;;11.07;4.45;;;;;;;9.17;83.27;97533.38;5010441;28;20077;-77
2023/11/19 08:28:03;;;;;;;7.45;4.10;;;;;;;9.32;82.30;97528.16;4977324;28;20080;-76
2023/11/19 08:30:29;;;;;;;7.97;4.45;;;;;;;9.48;81.42;97521.81;4978069;28;20418;-76
2023/11/19 08:32:55;;;;;;;10.55;5.40;;;;;;;9.59;81.67;97510.53;4994184;28;20417;-77
2023/11/19 08:35:20;;;;;;;4.25;2.50;;;;;;;9.65;79.03;97515.50;4977632;28;20026;-76
2023/11/19 08:37:46;;;;;;;4.50;2.80;;;;;;;9.85;75.35;97515.16;4993948;28;20064;-76
2023/11/19 08:40:14;;;;;;;5.45;3.38;;;;;;;10.16;73.78;97525.78;4978116;28;20029;-76
2023/11/19 08:42:40;;;;;;;5.32;3.22;;;;;;;10.16;68.63;97522.22;4994352;28;20037;-76
2023/11/19 08:45:06;;;;;;;8.95;5.82;;;;;;;10.18;70.15;97525.69;5011518;28;20405;-77
2023/11/19 08:47:31;;;;;;;4.72;2.83;;;;;;;9.79;72.88;97531.56;4993769;28;20030;-77
2023/11/19 08:49:57;;;;;;;3.88;2.97;;;;;;;9.59;76.92;97532.75;4977394;28;20022;-77
2023/11/19 08:52:22;;;;;;;4.20;2.67;;;;;;;9.64;75.64;97543.16;4993810;28;20034;-76
2023/11/19 08:54:48;;;;;;;6.72;3.58;;;;;;;9.69;75.69;97536.59;4993741;28;20030;-76
2023/11/19 08:57:14;;;;;;;3.95;2.78;;;;;;;9.77;73.99;97534.34;4977555;28;20041;-76
2023/11/19 08:59:39;;;;;;;5.38;3.90;;;;;;;10.01;72.31;97518.66;4977371;28;20024;-77
2023/11/19 09:02:09;;;;;;;8.30;4.30;;;;;;;10.14;71.84;97508.97;4993567;28;20030;-76
2023/11/19 09:04:35;;;;;;;6.38;3.97;;;;;;;10.29;70.23;97518.72;4977723;28;20533;-77
2023/11/19 09:07:01;;;;;;;5.05;3.30;;;;;;;10.72;68.77;97508.03;4977952;28;20127;-78
2023/11/19 09:09:27;;;;;;;5.20;3.28;;;;;;;10.91;65.17;97500.56;4977531;28;20084;-76
2023/11/19 09:11:53;;;;;;;11.73;5.43;;;;;;;11.04;68.40;97485.44;4977307;28;20026;-75
2023/11/19 09:14:18;;;;;;;7.95;4.88;;;;;;;11.44;65.12;97481.84;4974873;28;20457;-77
2023/11/19 09:16:44;;;;;;;7.30;4.35;;;;;;;11.39;62.68;97467.91;4993729;28;20141;-78
2023/11/19 09:19:09;;;;;;;9.38;5.50;;;;;;;11.21;61.88;97481.66;4977466;28;20462;-77
2023/11/19 09:21:38;;;;;;;8.57;4.43;;;;;;;11.11;62.91;97470.69;4993395;28;20026;-77
2023/11/19 09:24:04;;;;;;;6.65;3.85;;;;;;;10.89;63.02;97481.06;4993985;28;20083;-77
2023/11/19 09:26:30;;;;;;;6.22;3.95;;;;;;;10.90;66.64;97498.84;4983508;28;20049;-80
2023/11/19 09:28:56;;;;;;;9.80;4.63;;;;;;;12.25;62.75;97501.34;5009773;28;20110;-77
2023/11/19 09:31:21;;;;;;;5.47;3.92;;;;;;;14.05;54.15;97463.84;5009724;28;20025;-79
2023/11/19 09:33:47;;;;;;;10.00;4.65;;;;;;;15.51;50.81;97452.94;5009859;28;20557;-79
2023/11/19 09:36:16;;;;;;;5.40;3.67;;;;;;;16.00;47.92;97440.72;4993579;28;20026;-79
2023/11/19 09:38:43;;;;;;;7.70;4.22;;;;;;;16.25;47.33;97416.03;5005909;28;20122;-78
2023/11/19 09:41:11;;;;;;;7.68;4.30;;;;;;;16.77;45.71;97415.91;4993573;28;20512;-78
2023/11/19 09:43:37;;;;;;;7.65;3.78;;;;;;;15.51;45.73;97412.50;5009568;28;20105;-78
2023/11/19 09:46:07;;;;;;;4.20;3.10;;;;;;;15.09;47.64;97438.47;4993559;28;20132;-78
2023/11/19 09:48:42;;;;;;;4.88;3.28;;;;;;;14.36;48.88;97427.38;4993140;28;20121;-77
2023/11/19 09:51:09;;;;;;;6.57;3.50;;;;;;;13.53;50.75;97426.63;4993992;28;20069;-77
2023/11/19 09:53:36;;;;;;;8.50;5.10;;;;;;;12.99;52.82;97428.03;5009534;28;20038;-78
2023/11/19 09:56:05;;;;;;;9.52;5.10;;;;;;;12.43;53.44;97430.31;4993162;28;20065;-76
2023/11/19 09:58:31;;;;;;;14.82;7.43;;;;;;;12.18;55.42;97435.69;4993459;28;20412;-77
2023/11/19 10:01:02;;;;;;;13.05;8.43;;;;;;;11.66;57.05;97454.47;4992940;28;20037;-77
2023/11/19 10:03:34;;;;;;;8.38;4.97;;;;;;;11.59;57.40;97460.38;4993395;28;20099;-76
2023/11/19 10:06:01;;;;;;;7.43;3.97;;;;;;;11.15;57.20;97441.91;4996369;28;20022;-77
2023/11/19 10:08:26;;;;;;;4.95;3.53;;;;;;;10.80;59.20;97449.53;4996441;28;20311;-76
2023/11/19 10:10:52;;;;;;;6.95;4.10;;;;;;;11.02;62.82;97441.84;5013057;28;20477;-77
2023/11/19 10:13:18;;;;;;;7.05;3.30;;;;;;;10.94;60.02;97436.16;4996668;28;20038;-77
2023/11/19 10:15:44;;;;;;;5.88;3.88;;;;;;;10.48;63.28;97456.09;4996541;28;20066;-78
2023/11/19 10:18:10;;;;;;;6.50;3.28;;;;;;;10.03;64.10;97446.44;5013076;28;20145;-76
2023/11/19 10:20:42;;;;;;;6.78;3.97;;;;;;;9.68;67.60;97464.56;4996273;28;20046;-76
2023/11/19 10:23:09;;;;;;;11.20;5.75;;;;;;;9.86;69.67;97460.81;5012603;28;20137;-77
2023/11/19 10:25:34;;;;;;;6.18;3.97;;;;;;;10.59;66.39;97461.63;4996382;28;20057;-78
2023/11/19 10:28:00;;;;;;;4.40;2.92;;;;;;;12.16;59.08;97453.72;4996836;28;20025;-77
2023/11/19 10:30:30;;;;;;;7.85;4.13;;;;;;;13.63;52.66;97420.59;4980164;28;20117;-77
2023/11/19 10:33:17;;;;;;;4.32;3.22;;;;;;;14.74;49.69;97405.44;4979986;28;20026;-77
2023/11/19 10:36:02;;;;;;;5.20;3.30;;;;;;;15.25;47.63;97391.41;4980405;28;20521;-76
2023/11/19 10:38:28;;;;;;;6.88;4.05;;;;;;;15.94;46.49;97389.97;4980885;28;20026;-76
2023/11/19 10:40:57;;;;;;;5.45;3.75;;;;;;;16.55;44.28;97372.03;4980022;28;20109;-76
2023/11/19 10:43:23;;;;;;;5.95;3.88;;;;;;;17.04;43.98;97382.00;4980090;28;20433;-77
2023/11/19 10:45:49;;;;;;;11.02;5.15;;;;;;;17.18;42.48;97371.63;4996040;28;20036;-76
2023/11/19 10:48:15;;;;;;;4.97;3.92;;;;;;;17.71;42.31;97374.84;4996129;28;20022;-76
2023/11/19 10:50:42;;;;;;;5.32;3.88;;;;;;;18.32;40.60;97371.72;4979572;28;20105;-77
2023/11/19 10:53:10;;;;;;;4.32;3.42;;;;;;;17.71;41.12;97382.09;4979772;28;20034;-75
2023/11/19 10:55:40;;;;;;;6.25;2.90;;;;;;;17.83;40.93;97370.97;4995649;28;20464;-76
2023/11/19 10:58:09;;;;;;;4.43;3.50;;;;;;;17.77;40.12;97368.84;4995525;28;20029;-75
2023/11/19 11:00:56;;;;;;;4.93;3.00;;;;;;;18.05;40.25;97371.66;4979129;28;20033;-76
2023/11/19 11:03:24;;;;;;;8.65;3.40;;;;;;;18.23;39.83;97375.31;4994918;28;20021;-76
2023/11/19 11:05:51;;;;;;;3.40;2.80;;;;;;;18.92;38.64;97373.91;4995792;28;20022;-76
2023/11/19 11:08:18;;;;;;;4.53;3.47;;;;;;;18.50;39.70;97375.41;4979151;28;20505;-77
2023/11/19 11:10:57;;;;;;;4.53;3.30;;;;;;;18.00;38.91;97358.53;4976755;28;20494;-76
2023/11/19 11:13:24;;;;;;;5.05;3.58;;;;;;;17.34;40.77;97365.69;4979326;28;20026;-77
2023/11/19 11:15:51;;;;;;;4.18;3.25;;;;;;;18.20;39.55;97357.50;4995264;28;20415;-75
2023/11/19 11:18:18;;;;;;;4.05;2.80;;;;;;;18.09;40.44;97362.25;4995081;28;20034;-76
2023/11/19 11:20:47;;;;;;;4.60;3.25;;;;;;;17.64;40.63;97349.34;4995444;28;20033;-76
2023/11/19 11:23:45;;;;;;;3.78;3.08;;;;;;;18.48;39.90;97352.16;4979046;28;20125;-76
2023/11/19 11:26:41;;;;;;;4.22;3.15;;;;;;;18.05;39.08;97348.16;4982693;28;20042;-77
2023/11/19 11:29:13;;;;;;;6.38;3.30;;;;;;;17.88;39.84;97355.16;5011381;28;20436;-75